createdAt,value
2023-01-01T00:00:29.539Z,98646.53
2023-01-01T00:01:32.469Z,98641.22
2023-01-01T00:02:37.050Z,98644.22
2023-01-01T00:03:41.832Z,98649.03
2023-01-01T00:04:44.234Z,98644.22
2023-01-01T00:05:45.690Z,98644.50
2023-01-01T00:06:47.452Z,98651.53
2023-01-01T00:07:49.184Z,98646.03
2023-01-01T00:08:50.686Z,98640.25
2023-01-01T00:09:52.028Z,98648.88
2023-01-01T00:10:53.323Z,98646.38
2023-01-01T00:11:54.777Z,98650.31
2023-01-01T00:12:57.067Z,98651.56
2023-01-01T00:13:58.336Z,98651.72
2023-01-01T00:14:59.545Z,98646.41
2023-01-01T00:16:07.886Z,98656.44
2023-01-01T00:17:09.200Z,98654.72
2023-01-01T00:18:11.870Z,98663.16
2023-01-01T00:19:13.111Z,98659.41
2023-01-01T00:20:14.400Z,98661.25
2023-01-01T00:21:15.669Z,98666.91
2023-01-01T00:22:52.883Z,98670.22
2023-01-01T00:23:39.113Z,98664.44
2023-01-01T00:24:40.605Z,98673.53
2023-01-01T00:25:41.935Z,98674.47
2023-01-01T00:26:43.214Z,98663.94
2023-01-01T00:27:44.754Z,98664.28
2023-01-01T00:28:46.320Z,98664.56
2023-01-01T00:29:47.530Z,98660.34
2023-01-01T00:30:48.830Z,98662.06
2023-01-01T00:31:53.056Z,98655.19
2023-01-01T00:32:56.058Z,98656.75
2023-01-01T00:33:57.675Z,98658.63
2023-01-01T00:34:58.934Z,98660.03
2023-01-01T00:36:16.258Z,98660.69
2023-01-01T00:37:20.693Z,98659.41
2023-01-01T00:38:21.932Z,98657.38
2023-01-01T00:39:23.273Z,98657.38
2023-01-01T00:40:24.481Z,98655.03
2023-01-01T00:41:25.744Z,98656.28
2023-01-01T00:42:27.012Z,98650.03
2023-01-01T00:43:28.822Z,98655.03
2023-01-01T00:44:30.027Z,98654.56
2023-01-01T00:45:31.291Z,98662.84
2023-01-01T00:46:35.311Z,98653.75
2023-01-01T00:47:43.865Z,98648.28
2023-01-01T00:48:45.417Z,98655.63
2023-01-01T00:49:47.724Z,98652.19
2023-01-01T00:50:49.843Z,98650.31
2023-01-01T00:51:51.150Z,98650.31
2023-01-01T00:52:52.501Z,98644.81
2023-01-01T00:53:54.664Z,98656.75
2023-01-01T00:54:56.117Z,98649.84
2023-01-01T00:55:57.420Z,98647.66
2023-01-01T00:56:58.670Z,98653.47
2023-01-01T00:58:00.409Z,98648.28
2023-01-01T00:59:03.595Z,98648.00
2023-01-01T01:00:05.384Z,98646.56
2023-01-01T01:01:06.796Z,98648.44
2023-01-01T01:02:08.900Z,98660.50
2023-01-01T01:03:10.673Z,98648.59
2023-01-01T01:04:12.663Z,98652.03
2023-01-01T01:05:15.365Z,98657.81
2023-01-01T01:06:17.331Z,98653.28
2023-01-01T01:07:18.628Z,98653.16
2023-01-01T01:08:22.101Z,98651.88
2023-01-01T01:09:26.924Z,98654.09
2023-01-01T01:10:30.645Z,98656.44
2023-01-01T01:11:31.896Z,98657.38
2023-01-01T01:12:34.325Z,98656.41
2023-01-01T01:13:35.942Z,98661.56
2023-01-01T01:14:39.805Z,98658.91
2023-01-01T01:15:41.711Z,98649.66
2023-01-01T01:16:43.054Z,98661.09
2023-01-01T01:17:44.734Z,98664.09
2023-01-01T01:18:46.067Z,98663.47
2023-01-01T01:19:47.395Z,98649.38
2023-01-01T01:20:50.845Z,98661.91
2023-01-01T01:21:52.783Z,98657.19
2023-01-01T01:22:54.077Z,98661.59
2023-01-01T01:23:57.391Z,98674.75
2023-01-01T01:24:58.689Z,98669.59
2023-01-01T01:26:12.265Z,98666.13
2023-01-01T01:27:13.585Z,98664.25
2023-01-01T01:28:14.852Z,98656.88
2023-01-01T01:29:16.479Z,98657.38
2023-01-01T01:30:19.880Z,98662.97
2023-01-01T01:31:22.309Z,98657.19
2023-01-01T01:32:23.590Z,98668.97
2023-01-01T01:33:25.010Z,98670.53
2023-01-01T01:34:28.311Z,98673.81
2023-01-01T01:35:29.905Z,98660.50
2023-01-01T01:36:31.331Z,98661.44
2023-01-01T01:37:32.563Z,98666.47
2023-01-01T01:38:34.214Z,98664.09
2023-01-01T01:39:35.567Z,98666.31
2023-01-01T01:40:36.939Z,98662.72
2023-01-01T01:41:38.181Z,98664.09
2023-01-01T01:42:39.409Z,98671.63
2023-01-01T01:43:45.854Z,98675.38
2023-01-01T01:44:47.068Z,98660.97
2023-01-01T01:45:48.717Z,98671.31
2023-01-01T01:46:50.068Z,98662.41
2023-01-01T01:47:58.811Z,98669.59
2023-01-01T01:49:06.746Z,98666.47
2023-01-01T01:50:19.268Z,98663.78
2023-01-01T01:51:28.033Z,98666.63
2023-01-01T01:52:30.000Z,98663.63
2023-01-01T01:53:33.606Z,98668.50
2023-01-01T01:54:37.179Z,98672.91
2023-01-01T01:55:40.909Z,98669.72
2023-01-01T01:56:47.566Z,98675.69
2023-01-01T01:57:52.153Z,98681.03
2023-01-01T01:58:53.432Z,98669.59
2023-01-01T02:00:10.922Z,98679.19
2023-01-01T02:01:12.962Z,98677.44
2023-01-01T02:02:34.220Z,98681.69
2023-01-01T02:03:51.874Z,98677.28
2023-01-01T02:04:53.335Z,98683.38
2023-01-01T02:05:54.776Z,98674.94
2023-01-01T02:06:56.092Z,98680.88
2023-01-01T02:07:57.742Z,98677.44
2023-01-01T02:09:01.788Z,98684.16
2023-01-01T02:10:03.952Z,98675.88
2023-01-01T02:11:05.423Z,98667.09
2023-01-01T02:12:07.160Z,98676.31
2023-01-01T02:13:08.837Z,98674.75
2023-01-01T02:14:13.024Z,98685.13
2023-01-01T02:15:14.488Z,98675.84
2023-01-01T02:16:34.474Z,98679.03
2023-01-01T02:18:05.167Z,98676.34
2023-01-01T02:19:15.465Z,98685.56
2023-01-01T02:20:33.643Z,98694.34
2023-01-01T02:21:47.680Z,98692.34
2023-01-01T02:23:03.879Z,98692.16
2023-01-01T02:24:18.501Z,98692.63
2023-01-01T02:25:20.001Z,98686.69
2023-01-01T02:26:27.256Z,98679.47
2023-01-01T02:27:44.948Z,98683.84
2023-01-01T02:29:03.187Z,98694.47
2023-01-01T02:30:06.052Z,98686.50
2023-01-01T02:31:08.194Z,98692.47
2023-01-01T02:32:14.042Z,98694.81
2023-01-01T02:33:18.303Z,98697.03
2023-01-01T02:34:21.185Z,98697.97
2023-01-01T02:35:32.039Z,98702.81
2023-01-01T02:36:36.616Z,98700.78
2023-01-01T02:37:38.392Z,98693.88
2023-01-01T02:38:45.951Z,98696.41
2023-01-01T02:39:50.856Z,98696.69
2023-01-01T02:40:57.538Z,98698.28
2023-01-01T02:42:00.156Z,98698.28
2023-01-01T02:43:02.236Z,98703.91
2023-01-01T02:45:06.777Z,98702.19
2023-01-01T02:46:10.772Z,98692.63
2023-01-01T02:47:14.851Z,98692.78
2023-01-01T02:48:36.751Z,98699.06
2023-01-01T02:49:41.377Z,98695.63
2023-01-01T02:50:42.677Z,98698.44
2023-01-01T02:51:46.908Z,98694.38
2023-01-01T02:52:54.375Z,98701.25
2023-01-01T02:54:01.868Z,98698.88
2023-01-01T02:55:07.091Z,98703.75
2023-01-01T02:56:12.075Z,98705.19
2023-01-01T02:57:36.673Z,98703.59
2023-01-01T02:58:45.625Z,98700.63
2023-01-01T03:00:02.284Z,98703.91
2023-01-01T03:01:08.857Z,98706.56
2023-01-01T03:02:14.121Z,98708.28
2023-01-01T03:03:22.657Z,98701.06
2023-01-01T03:04:24.154Z,98702.19
2023-01-01T03:05:35.107Z,98703.13
2023-01-01T03:06:45.665Z,98706.88
2023-01-01T03:08:03.654Z,98697.78
2023-01-01T03:09:11.290Z,98698.91
2023-01-01T03:10:18.871Z,98704.06
2023-01-01T03:11:21.846Z,98711.88
2023-01-01T03:12:28.080Z,98711.25
2023-01-01T03:13:48.107Z,98711.09
2023-01-01T03:14:53.611Z,98711.41
2023-01-01T03:15:55.127Z,98707.50
2023-01-01T03:17:00.795Z,98707.00
2023-01-01T03:18:18.373Z,98703.09
2023-01-01T03:19:23.666Z,98699.97
2023-01-01T03:20:27.136Z,98699.63
2023-01-01T03:21:28.423Z,98713.75
2023-01-01T03:22:32.106Z,98701.84
2023-01-01T03:23:38.777Z,98716.56
2023-01-01T03:24:43.622Z,98712.94
2023-01-01T03:25:48.807Z,98717.03
2023-01-01T03:26:52.894Z,98715.91
2023-01-01T03:28:05.979Z,98719.69
2023-01-01T03:29:10.464Z,98722.19
2023-01-01T03:30:13.292Z,98726.13
2023-01-01T03:31:20.502Z,98726.41
2023-01-01T03:32:32.663Z,98724.88
2023-01-01T03:33:40.835Z,98729.28
2023-01-01T03:34:49.847Z,98735.19
2023-01-01T03:35:58.787Z,98742.88
2023-01-01T03:37:03.642Z,98738.97
2023-01-01T03:38:08.882Z,98737.56
2023-01-01T03:39:17.343Z,98741.31
2023-01-01T03:40:19.837Z,98736.47
2023-01-01T03:41:28.704Z,98742.56
2023-01-01T03:42:34.823Z,98745.72
2023-01-01T03:43:42.307Z,98743.06
2023-01-01T03:44:58.916Z,98740.41
2023-01-01T03:46:00.950Z,98741.03
2023-01-01T03:47:04.177Z,98729.75
2023-01-01T03:48:06.782Z,98732.88
2023-01-01T03:49:10.030Z,98732.06
2023-01-01T03:50:12.192Z,98736.47
2023-01-01T03:51:23.095Z,98734.75
2023-01-01T03:52:28.125Z,98731.91
2023-01-01T03:53:36.227Z,98724.38
2023-01-01T03:54:40.251Z,98731.44
2023-01-01T03:55:45.660Z,98736.09
2023-01-01T03:56:52.170Z,98734.22
2023-01-01T03:58:08.678Z,98732.84
2023-01-01T03:59:18.631Z,98734.56
2023-01-01T04:00:24.637Z,98728.63
2023-01-01T04:01:30.892Z,98731.59
2023-01-01T04:02:36.166Z,98721.56
2023-01-01T04:03:38.571Z,98723.78
2023-01-01T04:04:39.990Z,98728.47
2023-01-01T04:05:42.381Z,98721.28
2023-01-01T04:06:43.941Z,98731.75
2023-01-01T04:08:46.386Z,98719.56
2023-01-01T04:09:49.693Z,98732.06
2023-01-01T04:10:55.155Z,98731.13
2023-01-01T04:11:57.567Z,98723.28
2023-01-01T04:12:59.161Z,98729.84
2023-01-01T04:14:02.306Z,98730.47
2023-01-01T04:15:03.699Z,98729.41
2023-01-01T04:16:05.475Z,98726.59
2023-01-01T04:17:08.142Z,98723.44
2023-01-01T04:18:09.511Z,98726.44
2023-01-01T04:19:10.781Z,98726.25
2023-01-01T04:20:13.355Z,98725.81
2023-01-01T04:21:14.821Z,98721.25
2023-01-01T04:22:17.318Z,98725.47
2023-01-01T04:23:18.621Z,98720.78
2023-01-01T04:24:20.196Z,98717.94
2023-01-01T04:25:21.425Z,98720.75
2023-01-01T04:26:22.654Z,98719.00
2023-01-01T04:27:27.424Z,98716.97
2023-01-01T04:28:28.727Z,98716.81
2023-01-01T04:29:30.234Z,98709.94
2023-01-01T04:31:35.106Z,98704.44
2023-01-01T04:32:38.595Z,98704.78
2023-01-01T04:33:39.949Z,98707.78
2023-01-01T04:34:41.279Z,98708.38
2023-01-01T04:35:42.579Z,98708.56
2023-01-01T04:36:44.061Z,98704.31
2023-01-01T04:37:45.337Z,98699.31
2023-01-01T04:38:46.636Z,98698.53
2023-01-01T04:39:48.033Z,98707.63
2023-01-01T04:40:59.790Z,98708.88
2023-01-01T04:42:01.219Z,98711.22
2023-01-01T04:43:02.617Z,98701.84
2023-01-01T04:44:04.324Z,98698.09
2023-01-01T04:45:06.238Z,98701.84
2023-01-01T04:46:07.724Z,98700.16
2023-01-01T04:47:09.180Z,98697.34
2023-01-01T04:48:10.523Z,98697.00
2023-01-01T04:49:11.916Z,98704.22
2023-01-01T04:50:13.495Z,98702.19
2023-01-01T04:51:16.296Z,98706.25
2023-01-01T04:52:20.879Z,98707.66
2023-01-01T04:53:22.303Z,98701.72
2023-01-01T04:54:23.535Z,98718.63
2023-01-01T04:55:27.807Z,98716.88
2023-01-01T04:56:29.117Z,98715.97
2023-01-01T04:57:30.844Z,98715.47
2023-01-01T04:58:33.271Z,98717.84
2023-01-01T04:59:34.633Z,98727.53
2023-01-01T05:00:35.987Z,98719.88
2023-01-01T05:01:40.197Z,98724.41
2023-01-01T05:02:41.670Z,98726.59
2023-01-01T05:03:43.045Z,98729.88
2023-01-01T05:04:44.487Z,98726.25
2023-01-01T05:05:51.215Z,98726.91
2023-01-01T05:06:52.719Z,98731.09
2023-01-01T05:07:54.018Z,98723.56
2023-01-01T05:08:55.752Z,98736.75
2023-01-01T05:09:57.174Z,98725.00
2023-01-01T05:11:02.123Z,98735.03
2023-01-01T05:12:03.538Z,98725.03
2023-01-01T05:13:08.375Z,98737.53
2023-01-01T05:14:09.711Z,98733.97
2023-01-01T05:15:11.607Z,98732.50
2023-01-01T05:16:15.021Z,98741.44
2023-01-01T05:17:16.627Z,98747.56
2023-01-01T05:18:18.042Z,98743.00
2023-01-01T05:19:19.526Z,98751.00
2023-01-01T05:20:20.756Z,98750.50
2023-01-01T05:21:23.424Z,98747.22
2023-01-01T05:22:24.684Z,98751.91
2023-01-01T05:23:26.005Z,98754.41
2023-01-01T05:24:27.277Z,98746.88
2023-01-01T05:25:28.519Z,98747.81
2023-01-01T05:26:31.246Z,98754.56
2023-01-01T05:27:32.472Z,98749.22
2023-01-01T05:28:33.734Z,98751.25
2023-01-01T05:29:35.030Z,98747.03
2023-01-01T05:30:42.311Z,98747.66
2023-01-01T05:31:44.397Z,98750.97
2023-01-01T05:32:45.802Z,98751.56
2023-01-01T05:33:47.557Z,98746.06
2023-01-01T05:34:48.822Z,98746.41
2023-01-01T05:35:53.866Z,98749.84
2023-01-01T05:36:55.681Z,98748.13
2023-01-01T05:37:58.739Z,98740.63
2023-01-01T05:39:00.126Z,98746.88
2023-01-01T05:40:01.612Z,98746.44
2023-01-01T05:41:06.605Z,98743.00
2023-01-01T05:42:08.078Z,98748.59
2023-01-01T05:43:09.351Z,98753.13
2023-01-01T05:44:11.038Z,98745.94
2023-01-01T05:45:13.910Z,98747.53
2023-01-01T05:46:16.907Z,98754.13
2023-01-01T05:47:18.161Z,98747.69
2023-01-01T05:48:19.396Z,98743.16
2023-01-01T05:49:20.627Z,98751.31
2023-01-01T05:50:21.889Z,98756.94
2023-01-01T05:51:24.654Z,98752.41
2023-01-01T05:52:27.226Z,98751.47
2023-01-01T05:53:29.198Z,98750.34
2023-01-01T05:54:30.450Z,98757.88
2023-01-01T05:55:33.289Z,98754.13
2023-01-01T05:56:34.536Z,98760.41
2023-01-01T05:57:36.076Z,98760.41
2023-01-01T05:58:37.335Z,98759.91
2023-01-01T05:59:39.202Z,98757.88
2023-01-01T06:00:40.406Z,98758.03
2023-01-01T06:01:45.921Z,98764.72
2023-01-01T06:02:47.593Z,98765.38
2023-01-01T06:03:49.675Z,98754.56
2023-01-01T06:04:52.341Z,98764.72
2023-01-01T06:05:53.894Z,98761.78
2023-01-01T06:06:56.386Z,98759.72
2023-01-01T06:07:57.571Z,98767.22
2023-01-01T06:08:59.985Z,98758.94
2023-01-01T06:10:03.374Z,98760.03
2023-01-01T06:11:05.973Z,98758.94
2023-01-01T06:12:07.989Z,98762.84
2023-01-01T06:13:13.159Z,98762.97
2023-01-01T06:14:15.069Z,98769.88
2023-01-01T06:15:16.414Z,98775.78
2023-01-01T06:16:17.726Z,98775.34
2023-01-01T06:17:19.109Z,98780.78
2023-01-01T06:18:20.443Z,98779.59
2023-01-01T06:19:21.972Z,98781.63
2023-01-01T06:20:24.630Z,98777.06
2023-01-01T06:21:27.514Z,98783.31
2023-01-01T06:22:28.774Z,98781.88
2023-01-01T06:23:31.641Z,98779.06
2023-01-01T06:24:38.753Z,98783.44
2023-01-01T06:25:41.116Z,98784.09
2023-01-01T06:26:44.649Z,98793.50
2023-01-01T06:27:46.081Z,98790.84
2023-01-01T06:28:48.055Z,98787.84
2023-01-01T06:29:49.365Z,98789.09
2023-01-01T06:30:50.940Z,98791.00
2023-01-01T06:31:52.423Z,98785.69
2023-01-01T06:32:53.659Z,98791.28
2023-01-01T06:33:55.309Z,98784.22
2023-01-01T06:34:56.712Z,98785.19
2023-01-01T06:35:58.335Z,98790.50
2023-01-01T06:37:06.334Z,98793.94
2023-01-01T06:38:08.151Z,98788.16
2023-01-01T06:39:09.570Z,98785.03
2023-01-01T06:40:11.037Z,98793.63
2023-01-01T06:41:17.216Z,98791.56
2023-01-01T06:42:18.483Z,98790.97
2023-01-01T06:43:20.008Z,98791.88
2023-01-01T06:44:21.305Z,98785.78
2023-01-01T06:45:22.762Z,98796.16
2023-01-01T06:46:23.959Z,98791.44
2023-01-01T06:47:25.255Z,98788.63
2023-01-01T06:48:28.239Z,98787.34
2023-01-01T06:49:29.554Z,98786.88
2023-01-01T06:50:31.020Z,98782.53
2023-01-01T06:51:37.370Z,98791.09
2023-01-01T06:52:38.635Z,98782.16
2023-01-01T06:53:39.884Z,98784.34
2023-01-01T06:54:41.716Z,98785.44
2023-01-01T06:55:53.411Z,98776.84
2023-01-01T06:56:58.203Z,98781.06
2023-01-01T06:57:59.591Z,98782.81
2023-01-01T06:59:00.889Z,98780.31
2023-01-01T07:00:02.138Z,98780.50
2023-01-01T07:01:17.446Z,98773.59
2023-01-01T07:02:19.600Z,98780.78
2023-01-01T07:03:21.217Z,98783.63
2023-01-01T07:04:22.628Z,98781.88
2023-01-01T07:05:23.929Z,98776.41
2023-01-01T07:06:25.750Z,98783.13
2023-01-01T07:07:29.932Z,98788.94
2023-01-01T07:08:36.380Z,98791.28
2023-01-01T07:09:37.898Z,98789.88
2023-01-01T07:10:40.452Z,98790.38
2023-01-01T07:11:41.741Z,98799.00
2023-01-01T07:12:43.255Z,98788.16
2023-01-01T07:13:44.544Z,98789.28
2023-01-01T07:14:46.004Z,98782.38
2023-01-01T07:15:47.346Z,98795.53
2023-01-01T07:16:48.571Z,98790.84
2023-01-01T07:17:49.758Z,98792.56
2023-01-01T07:18:51.614Z,98795.41
2023-01-01T07:19:53.638Z,98794.13
2023-01-01T07:20:57.643Z,98790.69
2023-01-01T07:21:59.364Z,98794.75
2023-01-01T07:23:00.693Z,98798.84
2023-01-01T07:24:03.136Z,98802.47
2023-01-01T07:25:04.572Z,98799.03
2023-01-01T07:26:06.196Z,98806.06
2023-01-01T07:27:07.463Z,98795.22
2023-01-01T07:28:11.205Z,98799.28
2023-01-01T07:29:12.597Z,98804.13
2023-01-01T07:30:14.059Z,98802.38
2023-01-01T07:31:15.356Z,98805.66
2023-01-01T07:32:16.770Z,98809.41
2023-01-01T07:33:19.662Z,98807.56
2023-01-01T07:34:22.121Z,98813.50
2023-01-01T07:35:23.350Z,98808.19
2023-01-01T07:36:24.631Z,98812.25
2023-01-01T07:37:25.923Z,98813.03
2023-01-01T07:38:27.174Z,98818.34
2023-01-01T07:39:28.528Z,98817.09
2023-01-01T07:40:29.865Z,98815.50
2023-01-01T07:41:31.206Z,98819.25
2023-01-01T07:42:33.864Z,98821.31
2023-01-01T07:43:35.354Z,98819.25
2023-01-01T07:44:36.768Z,98821.44
2023-01-01T07:45:38.045Z,98826.28
2023-01-01T07:46:39.415Z,98833.34
2023-01-01T07:47:41.960Z,98825.34
2023-01-01T07:48:43.244Z,98836.97
2023-01-01T07:49:44.805Z,98835.59
2023-01-01T07:50:46.062Z,98835.88
2023-01-01T07:51:47.375Z,98847.66
2023-01-01T07:52:48.676Z,98843.13
2023-01-01T07:53:54.563Z,98845.00
2023-01-01T07:54:56.057Z,98842.78
2023-01-01T07:55:57.375Z,98844.66
2023-01-01T07:57:00.145Z,98843.75
2023-01-01T07:58:01.984Z,98847.38
2023-01-01T07:59:03.944Z,98845.97
2023-01-01T08:00:05.834Z,98851.13
2023-01-01T08:01:14.433Z,98854.41
2023-01-01T08:02:15.915Z,98855.69
2023-01-01T08:03:17.488Z,98856.47
2023-01-01T08:04:18.735Z,98851.91
2023-01-01T08:05:26.193Z,98858.34
2023-01-01T08:06:28.278Z,98860.53
2023-01-01T08:07:29.865Z,98864.44
2023-01-01T08:08:31.332Z,98859.59
2023-01-01T08:09:32.645Z,98859.59
2023-01-01T08:10:33.977Z,98870.22
2023-01-01T08:11:35.255Z,98867.56
2023-01-01T08:12:36.722Z,98868.84
2023-01-01T08:13:38.041Z,98870.59
2023-01-01T08:14:42.388Z,98865.09
2023-01-01T08:15:43.615Z,98861.16
2023-01-01T08:16:44.896Z,98868.06
2023-01-01T08:17:47.470Z,98866.00
2023-01-01T08:18:48.867Z,98871.31
2023-01-01T08:19:50.077Z,98872.69
2023-01-01T08:20:51.352Z,98875.38
2023-01-01T08:21:52.564Z,98878.03
2023-01-01T08:22:54.342Z,98865.03
2023-01-01T08:23:55.667Z,98876.00
2023-01-01T08:24:56.888Z,98868.78
2023-01-01T08:25:58.664Z,98877.38
2023-01-01T08:26:59.960Z,98873.47
2023-01-01T08:28:01.473Z,98884.09
2023-01-01T08:29:04.358Z,98876.13
2023-01-01T08:30:05.901Z,98882.81
2023-01-01T08:31:07.480Z,98880.03
2023-01-01T08:32:08.817Z,98882.41
2023-01-01T08:33:10.033Z,98876.19
2023-01-01T08:34:11.280Z,98877.75
2023-01-01T08:35:12.552Z,98874.28
2023-01-01T08:36:15.372Z,98878.03
2023-01-01T08:37:17.925Z,98879.31
2023-01-01T08:38:20.662Z,98885.09
2023-01-01T08:39:21.973Z,98880.88
2023-01-01T08:40:23.197Z,98888.38
2023-01-01T08:41:25.206Z,98888.72
2023-01-01T08:42:28.652Z,98890.13
2023-01-01T08:43:30.788Z,98898.41
2023-01-01T08:44:32.309Z,98895.25
2023-01-01T08:45:38.260Z,98891.69
2023-01-01T08:46:40.524Z,98897.78
2023-01-01T08:47:43.453Z,98896.41
2023-01-01T08:48:49.674Z,98892.16
2023-01-01T08:49:51.301Z,98895.13
2023-01-01T08:50:53.472Z,98901.84
2023-01-01T08:51:56.320Z,98900.78
2023-01-01T08:52:58.658Z,98902.94
2023-01-01T08:54:03.438Z,98901.06
2023-01-01T08:55:04.871Z,98904.50
2023-01-01T08:56:07.890Z,98906.75
2023-01-01T08:57:09.395Z,98905.31
2023-01-01T08:58:10.751Z,98912.84
2023-01-01T08:59:12.773Z,98911.56
2023-01-01T09:00:14.307Z,98910.78
2023-01-01T09:01:18.585Z,98913.44
2023-01-01T09:02:20.913Z,98911.09
2023-01-01T09:03:24.824Z,98910.31
2023-01-01T09:04:29.725Z,98905.78
2023-01-01T09:05:31.133Z,98908.31
2023-01-01T09:06:34.673Z,98909.72
2023-01-01T09:07:35.993Z,98909.59
2023-01-01T09:08:37.408Z,98909.78
2023-01-01T09:09:38.699Z,98901.00
2023-01-01T09:10:48.258Z,98906.34
2023-01-01T09:11:52.989Z,98905.88
2023-01-01T09:12:55.661Z,98915.69
2023-01-01T09:13:59.315Z,98910.38
2023-01-01T09:15:00.580Z,98903.50
2023-01-01T09:16:04.157Z,98908.69
2023-01-01T09:17:07.719Z,98915.75
2023-01-01T09:18:09.693Z,98911.06
2023-01-01T09:19:11.006Z,98913.56
2023-01-01T09:20:13.635Z,98915.13
2023-01-01T09:21:15.279Z,98916.88
2023-01-01T09:22:16.978Z,98911.84
2023-01-01T09:23:18.237Z,98920.31
2023-01-01T09:24:19.648Z,98914.41
2023-01-01T09:25:22.614Z,98915.31
2023-01-01T09:26:25.190Z,98916.59
2023-01-01T09:27:29.683Z,98914.13
2023-01-01T09:28:32.731Z,98914.25
2023-01-01T09:29:33.984Z,98910.81
2023-01-01T09:30:35.709Z,98911.59
2023-01-01T09:31:37.081Z,98913.81
2023-01-01T09:32:38.367Z,98914.47
2023-01-01T09:33:41.252Z,98916.03
2023-01-01T09:34:46.033Z,98912.44
2023-01-01T09:35:50.060Z,98907.13
2023-01-01T09:36:52.310Z,98902.56
2023-01-01T09:37:53.723Z,98919.22
2023-01-01T09:38:57.342Z,98917.50
2023-01-01T09:40:01.866Z,98919.41
2023-01-01T09:41:22.304Z,98917.34
2023-01-01T09:42:40.386Z,98918.44
2023-01-01T09:43:50.729Z,98917.53
2023-01-01T09:44:55.285Z,98923.03
2023-01-01T09:46:04.480Z,98924.44
2023-01-01T09:47:13.861Z,98920.84
2023-01-01T09:48:16.128Z,98918.47
2023-01-01T09:49:23.404Z,98922.41
2023-01-01T09:50:35.673Z,98915.66
2023-01-01T09:51:48.759Z,98919.28
2023-01-01T09:52:56.637Z,98920.53
2023-01-01T09:54:03.583Z,98922.88
2023-01-01T09:55:12.884Z,98924.13
2023-01-01T09:56:28.130Z,98925.84
2023-01-01T09:57:30.946Z,98925.22
2023-01-01T09:58:35.762Z,98929.94
2023-01-01T09:59:37.303Z,98918.63
2023-01-01T10:00:42.260Z,98921.16
2023-01-01T10:01:54.353Z,98924.59
2023-01-01T10:03:01.969Z,98920.53
2023-01-01T10:04:25.380Z,98916.44
2023-01-01T10:05:49.630Z,98913.47
2023-01-01T10:06:56.600Z,98923.66
2023-01-01T10:08:05.754Z,98918.75
2023-01-01T10:09:24.463Z,98918.91
2023-01-01T10:10:46.995Z,98915.94
2023-01-01T10:11:59.742Z,98914.06
2023-01-01T10:13:19.654Z,98918.59
2023-01-01T10:14:25.044Z,98914.19
2023-01-01T10:15:29.593Z,98907.91
2023-01-01T10:16:39.573Z,98902.84
2023-01-01T10:17:44.479Z,98903.66
2023-01-01T10:18:47.775Z,98900.66
2023-01-01T10:19:49.069Z,98905.06
2023-01-01T10:21:08.979Z,98902.84
2023-01-01T10:22:23.946Z,98904.09
2023-01-01T10:24:58.941Z,98897.19
2023-01-01T10:26:04.869Z,98901.41
2023-01-01T10:27:07.473Z,98904.06
2023-01-01T10:28:33.562Z,98905.31
2023-01-01T10:29:40.950Z,98898.72
2023-01-01T10:30:44.123Z,98897.63
2023-01-01T10:31:48.267Z,98897.91
2023-01-01T10:32:50.820Z,98899.78
2023-01-01T10:33:52.173Z,98901.69
2023-01-01T10:34:55.247Z,98907.03
2023-01-01T10:36:00.928Z,98894.59
2023-01-01T10:37:02.565Z,98897.72
2023-01-01T10:38:04.736Z,98905.44
2023-01-01T10:39:06.033Z,98901.94
2023-01-01T10:40:20.841Z,98897.41
2023-01-01T10:41:23.803Z,98903.53
2023-01-01T10:42:25.997Z,98903.66
2023-01-01T10:43:28.631Z,98904.44
2023-01-01T10:44:31.628Z,98911.38
2023-01-01T10:45:39.299Z,98906.47
2023-01-01T10:47:00.584Z,98908.81
2023-01-01T10:48:20.722Z,98910.41
2023-01-01T10:49:22.260Z,98898.88
2023-01-01T10:50:40.472Z,98903.44
2023-01-01T10:51:44.358Z,98898.88
2023-01-01T10:52:55.872Z,98905.00
2023-01-01T10:54:17.930Z,98905.78
2023-01-01T10:55:20.492Z,98903.44
2023-01-01T10:56:22.777Z,98903.91
2023-01-01T10:57:37.374Z,98905.47
2023-01-01T10:58:41.115Z,98904.97
2023-01-01T11:01:08.335Z,98896.75
2023-01-01T11:02:33.811Z,98900.53
2023-01-01T11:03:43.863Z,98902.44
2023-01-01T11:04:45.523Z,98894.69
2023-01-01T11:06:11.242Z,98896.06
2023-01-01T11:07:24.416Z,98893.22
2023-01-01T11:08:26.165Z,98894.00
2023-01-01T11:09:31.544Z,98890.34
2023-01-01T11:10:32.788Z,98886.38
2023-01-01T11:11:42.617Z,98882.56
2023-01-01T11:13:04.836Z,98884.59
2023-01-01T11:14:37.372Z,98886.31
2023-01-01T11:15:47.979Z,98875.63
2023-01-01T11:16:49.597Z,98884.41
2023-01-01T11:17:51.369Z,98876.53
2023-01-01T11:19:00.590Z,98882.47
2023-01-01T11:20:03.580Z,98879.78
2023-01-01T11:21:06.094Z,98880.56
2023-01-01T11:22:07.775Z,98877.09
2023-01-01T11:23:38.486Z,98872.22
2023-01-01T11:24:39.966Z,98875.16
2023-01-01T11:25:55.983Z,98876.72
2023-01-01T11:27:16.205Z,98873.56
2023-01-01T11:28:20.608Z,98868.00
2023-01-01T11:29:26.633Z,98864.56
2023-01-01T11:30:29.256Z,98870.25
2023-01-01T11:31:35.692Z,98866.44
2023-01-01T11:32:36.913Z,98865.03
2023-01-01T11:33:43.649Z,98860.00
2023-01-01T11:34:46.189Z,98862.66
2023-01-01T11:35:52.832Z,98852.78
2023-01-01T11:37:07.508Z,98858.22
2023-01-01T11:38:24.351Z,98857.44
2023-01-01T11:39:31.199Z,98861.81
2023-01-01T11:40:39.479Z,98848.44
2023-01-01T11:41:42.258Z,98852.81
2023-01-01T11:42:50.595Z,98839.44
2023-01-01T11:44:01.070Z,98842.91
2023-01-01T11:45:23.675Z,98841.78
2023-01-01T11:48:12.869Z,98846.50
2023-01-01T11:50:54.400Z,98836.91
2023-01-01T11:51:56.065Z,98835.47
2023-01-01T11:52:58.524Z,98837.81
2023-01-01T11:54:10.092Z,98844.06
2023-01-01T11:55:15.803Z,98843.19
2023-01-01T11:56:18.602Z,98842.19
2023-01-01T11:57:23.521Z,98841.84
2023-01-01T11:58:24.774Z,98828.81
2023-01-01T11:59:34.240Z,98837.50
2023-01-01T12:00:36.419Z,98834.81
2023-01-01T12:01:41.099Z,98831.94
2023-01-01T12:02:53.002Z,98827.38
2023-01-01T12:04:01.099Z,98829.72
2023-01-01T12:05:23.837Z,98823.47
2023-01-01T12:06:36.941Z,98822.81
2023-01-01T12:07:38.668Z,98822.81
2023-01-01T12:08:44.897Z,98822.59
2023-01-01T12:09:50.292Z,98821.13
2023-01-01T12:10:56.010Z,98817.34
2023-01-01T12:12:03.592Z,98816.34
2023-01-01T12:13:14.647Z,98813.22
2023-01-01T12:14:22.091Z,98818.16
2023-01-01T12:15:30.234Z,98817.03
2023-01-01T12:16:45.254Z,98812.78
2023-01-01T12:17:52.765Z,98818.16
2023-01-01T12:19:02.060Z,98815.78
2023-01-01T12:20:11.129Z,98820.81
2023-01-01T12:21:18.643Z,98816.56
2023-01-01T12:22:19.938Z,98812.34
2023-01-01T12:23:21.291Z,98815.78
2023-01-01T12:24:22.643Z,98816.25
2023-01-01T12:25:27.095Z,98808.22
2023-01-01T12:26:44.326Z,98808.22
2023-01-01T12:28:14.941Z,98811.69
2023-01-01T12:29:26.073Z,98801.41
2023-01-01T12:30:44.911Z,98799.84
2023-01-01T12:31:58.216Z,98802.88
2023-01-01T12:33:15.426Z,98802.09
2023-01-01T12:34:25.797Z,98795.63
2023-01-01T12:35:52.286Z,98801.88
2023-01-01T12:36:59.028Z,98792.72
2023-01-01T12:38:19.174Z,98782.00
2023-01-01T12:39:40.987Z,98786.25
2023-01-01T12:40:57.578Z,98785.47
2023-01-01T12:42:03.788Z,98793.16
2023-01-01T12:43:13.857Z,98788.25
2023-01-01T12:44:21.269Z,98786.38
2023-01-01T12:45:30.656Z,98786.38
2023-01-01T12:46:47.457Z,98783.22
2023-01-01T12:47:55.415Z,98781.66
2023-01-01T12:49:15.066Z,98782.78
2023-01-01T12:50:19.572Z,98783.56